Mowersville, Pennsylvania
Current Conditions -  °F | °C
As of 10:53 AM on Wednesday 28 Jan 2015 (Local Time) from KRYT Reporting Station
Clear Clear  
Wind Chill: 15°   Ceiling: Unl
Heat Index: 23°   Visibility: 10mi
Dew Point:   Wind: 7mph
Humidity: 42%   Direction: NA
Pressure: 30.19"   Gusts: NA
Location:  40.0414°N, 77.4967°W
Report Text: KRYT 281553Z AUTO VRB06KT 10SM CLR M05/M16 A3019 RMK AO2 SLP247 T10501161 $
Loading
Personal Weather Stations






























Interactive Weather Map New forecast layout! Learn more

10-Day Weather Forecast

Advertisements
Track Severe Weather on mobile